Terminal Aerodrome Forecast
Issued by NWS

Current Version | Previous Version | Graphics & Text | Print | Product List | Glossary On
Versions: 1 2 3 4 5 6 7 8 9 10 11 12 13 14
000
FTUS41 KPBZ 300839 AAA
TAFHLG
TAF AMD
KHLG 300839Z 3009/3106 29005KT P6SM BKN015
     FM300930 29005KT P6SM BKN040
     FM301500 29010KT P6SM SCT050=

USA.gov is the U.S. government's official web portal to all federal, state and local government web resources and services.